sensor_id;sensor_type;location;lat;lon;timestamp;P1;durP1;ratioP1;P2;durP2;ratioP2
53915;SDS011;39827;49.652;18.770;2023-04-03T00:01:22;807.58;;;747.85;;
53915;SDS011;39827;49.652;18.770;2023-04-03T00:03:48;813.42;;;754.42;;
53915;SDS011;39827;49.652;18.770;2023-04-03T00:06:15;791.35;;;733.03;;
53915;SDS011;39827;49.652;18.770;2023-04-03T00:08:40;800.60;;;742.83;;
53915;SDS011;39827;49.652;18.770;2023-04-03T00:11:06;739.38;;;685.55;;
53915;SDS011;39827;49.652;18.770;2023-04-03T00:13:33;756.20;;;701.05;;
53915;SDS011;39827;49.652;18.770;2023-04-03T00:15:59;719.85;;;666.55;;
53915;SDS011;39827;49.652;18.770;2023-04-03T00:18:24;757.78;;;703.17;;
53915;SDS011;39827;49.652;18.770;2023-04-03T00:20:50;743.55;;;690.13;;
53915;SDS011;39827;49.652;18.770;2023-04-03T00:23:15;691.25;;;640.05;;
53915;SDS011;39827;49.652;18.770;2023-04-03T00:25:41;689.15;;;636.15;;
53915;SDS011;39827;49.652;18.770;2023-04-03T00:28:07;766.88;;;708.15;;
53915;SDS011;39827;49.652;18.770;2023-04-03T00:30:33;772.13;;;717.45;;
53915;SDS011;39827;49.652;18.770;2023-04-03T00:32:59;772.08;;;716.95;;
53915;SDS011;39827;49.652;18.770;2023-04-03T00:35:25;708.42;;;656.88;;
53915;SDS011;39827;49.652;18.770;2023-04-03T00:37:51;740.78;;;686.08;;
53915;SDS011;39827;49.652;18.770;2023-04-03T00:40:18;716.85;;;661.88;;
53915;SDS011;39827;49.652;18.770;2023-04-03T00:42:45;767.63;;;708.92;;
53915;SDS011;39827;49.652;18.770;2023-04-03T00:47:38;780.83;;;720.92;;
53915;SDS011;39827;49.652;18.770;2023-04-03T00:50:05;717.75;;;662.60;;
53915;SDS011;39827;49.652;18.770;2023-04-03T00:52:32;766.90;;;712.58;;
53915;SDS011;39827;49.652;18.770;2023-04-03T00:54:58;703.42;;;653.30;;
53915;SDS011;39827;49.652;18.770;2023-04-03T00:57:27;704.40;;;654.40;;
53915;SDS011;39827;49.652;18.770;2023-04-03T01:00:00;642.35;;;595.35;;
53915;SDS011;39827;49.652;18.770;2023-04-03T01:02:31;701.38;;;651.35;;
53915;SDS011;39827;49.652;18.770;2023-04-03T01:04:56;716.15;;;665.67;;
53915;SDS011;39827;49.652;18.770;2023-04-03T01:07:22;747.83;;;694.80;;
53915;SDS011;39827;49.652;18.770;2023-04-03T01:09:52;737.95;;;685.88;;
53915;SDS011;39827;49.652;18.770;2023-04-03T01:12:54;721.75;;;670.80;;
53915;SDS011;39827;49.652;18.770;2023-04-03T01:17:49;623.75;;;577.47;;
53915;SDS011;39827;49.652;18.770;2023-04-03T01:23:27;718.28;;;663.28;;
53915;SDS011;39827;49.652;18.770;2023-04-03T01:26:02;657.55;;;611.88;;
53915;SDS011;39827;49.652;18.770;2023-04-03T01:28:29;706.55;;;658.28;;
53915;SDS011;39827;49.652;18.770;2023-04-03T01:33:50;622.60;;;578.40;;
53915;SDS011;39827;49.652;18.770;2023-04-03T01:36:21;666.63;;;621.13;;
53915;SDS011;39827;49.652;18.770;2023-04-03T01:38:49;649.72;;;605.55;;
53915;SDS011;39827;49.652;18.770;2023-04-03T01:41:15;693.75;;;646.05;;
53915;SDS011;39827;49.652;18.770;2023-04-03T01:43:41;688.25;;;640.90;;
53915;SDS011;39827;49.652;18.770;2023-04-03T01:46:06;632.67;;;588.85;;
53915;SDS011;39827;49.652;18.770;2023-04-03T01:48:32;700.80;;;652.53;;
53915;SDS011;39827;49.652;18.770;2023-04-03T01:50:58;774.80;;;721.13;;
53915;SDS011;39827;49.652;18.770;2023-04-03T01:53:23;699.92;;;648.13;;
53915;SDS011;39827;49.652;18.770;2023-04-03T01:55:49;811.00;;;749.65;;
53915;SDS011;39827;49.652;18.770;2023-04-03T01:58:14;741.17;;;689.47;;
53915;SDS011;39827;49.652;18.770;2023-04-03T02:00:40;659.38;;;612.88;;
53915;SDS011;39827;49.652;18.770;2023-04-03T02:03:05;751.70;;;699.53;;
53915;SDS011;39827;49.652;18.770;2023-04-03T02:05:31;748.70;;;697.50;;
53915;SDS011;39827;49.652;18.770;2023-04-03T02:07:57;709.20;;;660.53;;
53915;SDS011;39827;49.652;18.770;2023-04-03T02:10:23;651.47;;;603.63;;
53915;SDS011;39827;49.652;18.770;2023-04-03T02:12:48;639.15;;;591.88;;
53915;SDS011;39827;49.652;18.770;2023-04-03T02:15:14;713.97;;;660.83;;
53915;SDS011;39827;49.652;18.770;2023-04-03T02:17:39;705.25;;;656.28;;
53915;SDS011;39827;49.652;18.770;2023-04-03T02:20:05;571.50;;;530.25;;
53915;SDS011;39827;49.652;18.770;2023-04-03T02:22:31;636.03;;;589.72;;
53915;SDS011;39827;49.652;18.770;2023-04-03T02:24:56;644.00;;;600.30;;
53915;SDS011;39827;49.652;18.770;2023-04-03T02:27:22;666.30;;;621.08;;
53915;SDS011;39827;49.652;18.770;2023-04-03T02:29:47;622.28;;;577.90;;
53915;SDS011;39827;49.652;18.770;2023-04-03T02:32:12;595.53;;;550.90;;
53915;SDS011;39827;49.652;18.770;2023-04-03T02:34:38;683.75;;;635.22;;
53915;SDS011;39827;49.652;18.770;2023-04-03T02:37:03;710.33;;;656.95;;
53915;SDS011;39827;49.652;18.770;2023-04-03T02:39:28;766.38;;;711.20;;
53915;SDS011;39827;49.652;18.770;2023-04-03T02:41:54;737.92;;;684.33;;
53915;SDS011;39827;49.652;18.770;2023-04-03T02:44:19;488.67;;;451.80;;
53915;SDS011;39827;49.652;18.770;2023-04-03T02:46:45;696.83;;;646.35;;
53915;SDS011;39827;49.652;18.770;2023-04-03T02:49:10;625.83;;;579.20;;
53915;SDS011;39827;49.652;18.770;2023-04-03T02:51:36;692.55;;;641.75;;
53915;SDS011;39827;49.652;18.770;2023-04-03T02:54:01;770.63;;;712.58;;
53915;SDS011;39827;49.652;18.770;2023-04-03T02:56:27;779.55;;;720.60;;
53915;SDS011;39827;49.652;18.770;2023-04-03T02:58:52;798.75;;;737.42;;
53915;SDS011;39827;49.652;18.770;2023-04-03T03:01:18;677.50;;;628.58;;
53915;SDS011;39827;49.652;18.770;2023-04-03T03:03:43;692.42;;;642.53;;
53915;SDS011;39827;49.652;18.770;2023-04-03T03:06:10;752.15;;;697.28;;
53915;SDS011;39827;49.652;18.770;2023-04-03T03:08:37;639.83;;;592.15;;
53915;SDS011;39827;49.652;18.770;2023-04-03T03:11:04;575.30;;;532.30;;
53915;SDS011;39827;49.652;18.770;2023-04-03T03:13:30;680.88;;;630.25;;
53915;SDS011;39827;49.652;18.770;2023-04-03T03:15:56;807.10;;;748.60;;
53915;SDS011;39827;49.652;18.770;2023-04-03T03:18:22;650.70;;;602.15;;
53915;SDS011;39827;49.652;18.770;2023-04-03T03:20:51;774.83;;;717.92;;
53915;SDS011;39827;49.652;18.770;2023-04-03T03:23:17;738.40;;;685.08;;
53915;SDS011;39827;49.652;18.770;2023-04-03T03:25:43;644.47;;;596.90;;
53915;SDS011;39827;49.652;18.770;2023-04-03T03:28:08;644.17;;;599.13;;
53915;SDS011;39827;49.652;18.770;2023-04-03T03:30:33;674.30;;;626.72;;
53915;SDS011;39827;49.652;18.770;2023-04-03T03:33:00;637.72;;;592.10;;
53915;SDS011;39827;49.652;18.770;2023-04-03T03:35:26;695.78;;;644.72;;
53915;SDS011;39827;49.652;18.770;2023-04-03T03:37:51;767.35;;;710.83;;
53915;SDS011;39827;49.652;18.770;2023-04-03T03:40:17;753.70;;;697.70;;
53915;SDS011;39827;49.652;18.770;2023-04-03T03:42:42;779.03;;;721.63;;
53915;SDS011;39827;49.652;18.770;2023-04-03T03:45:08;764.10;;;707.33;;
53915;SDS011;39827;49.652;18.770;2023-04-03T03:47:34;821.70;;;761.25;;
53915;SDS011;39827;49.652;18.770;2023-04-03T03:50:00;825.17;;;765.17;;
53915;SDS011;39827;49.652;18.770;2023-04-03T03:52:26;831.63;;;770.30;;
53915;SDS011;39827;49.652;18.770;2023-04-03T03:54:51;860.78;;;796.97;;
53915;SDS011;39827;49.652;18.770;2023-04-03T03:57:16;764.03;;;707.25;;
53915;SDS011;39827;49.652;18.770;2023-04-03T03:59:42;825.78;;;764.50;;
53915;SDS011;39827;49.652;18.770;2023-04-03T04:02:08;770.35;;;713.75;;
53915;SDS011;39827;49.652;18.770;2023-04-03T04:04:34;791.40;;;733.10;;
53915;SDS011;39827;49.652;18.770;2023-04-03T04:06:59;644.95;;;598.42;;
53915;SDS011;39827;49.652;18.770;2023-04-03T04:09:25;732.00;;;677.38;;
53915;SDS011;39827;49.652;18.770;2023-04-03T04:11:51;777.03;;;718.97;;
53915;SDS011;39827;49.652;18.770;2023-04-03T04:14:16;848.15;;;784.65;;
53915;SDS011;39827;49.652;18.770;2023-04-03T04:16:42;778.67;;;721.65;;
53915;SDS011;39827;49.652;18.770;2023-04-03T04:19:07;765.88;;;707.78;;
53915;SDS011;39827;49.652;18.770;2023-04-03T04:21:32;746.72;;;689.67;;
53915;SDS011;39827;49.652;18.770;2023-04-03T04:23:58;836.65;;;774.75;;
53915;SDS011;39827;49.652;18.770;2023-04-03T04:26:23;836.05;;;774.45;;
53915;SDS011;39827;49.652;18.770;2023-04-03T04:28:49;805.70;;;746.70;;
53915;SDS011;39827;49.652;18.770;2023-04-03T04:31:15;748.65;;;692.05;;
53915;SDS011;39827;49.652;18.770;2023-04-03T04:33:40;668.85;;;619.20;;
53915;SDS011;39827;49.652;18.770;2023-04-03T04:36:05;651.40;;;605.58;;
53915;SDS011;39827;49.652;18.770;2023-04-03T04:38:31;642.42;;;595.67;;
53915;SDS011;39827;49.652;18.770;2023-04-03T04:40:56;671.97;;;624.95;;
53915;SDS011;39827;49.652;18.770;2023-04-03T04:43:22;699.47;;;650.75;;
53915;SDS011;39827;49.652;18.770;2023-04-03T04:45:47;724.17;;;673.78;;
53915;SDS011;39827;49.652;18.770;2023-04-03T04:48:13;663.63;;;616.05;;
53915;SDS011;39827;49.652;18.770;2023-04-03T04:50:38;702.60;;;653.45;;
53915;SDS011;39827;49.652;18.770;2023-04-03T04:53:03;663.92;;;616.80;;
53915;SDS011;39827;49.652;18.770;2023-04-03T04:55:29;741.22;;;689.22;;
53915;SDS011;39827;49.652;18.770;2023-04-03T04:57:55;780.88;;;726.40;;
53915;SDS011;39827;49.652;18.770;2023-04-03T05:00:20;748.30;;;696.42;;
53915;SDS011;39827;49.652;18.770;2023-04-03T05:02:46;834.28;;;775.95;;
53915;SDS011;39827;49.652;18.770;2023-04-03T05:05:11;887.03;;;824.28;;
53915;SDS011;39827;49.652;18.770;2023-04-03T05:07:37;852.75;;;793.33;;
53915;SDS011;39827;49.652;18.770;2023-04-03T05:10:02;821.08;;;764.80;;
53915;SDS011;39827;49.652;18.770;2023-04-03T05:12:28;830.25;;;772.40;;
53915;SDS011;39827;49.652;18.770;2023-04-03T05:14:54;771.47;;;718.38;;
53915;SDS011;39827;49.652;18.770;2023-04-03T05:17:19;779.10;;;725.30;;
53915;SDS011;39827;49.652;18.770;2023-04-03T05:19:45;748.95;;;696.50;;
53915;SDS011;39827;49.652;18.770;2023-04-03T05:22:10;744.92;;;692.42;;
53915;SDS011;39827;49.652;18.770;2023-04-03T05:24:36;750.70;;;696.83;;
53915;SDS011;39827;49.652;18.770;2023-04-03T05:27:01;714.40;;;664.13;;
53915;SDS011;39827;49.652;18.770;2023-04-03T05:29:27;663.33;;;616.47;;
53915;SDS011;39827;49.652;18.770;2023-04-03T05:31:52;664.28;;;617.15;;
53915;SDS011;39827;49.652;18.770;2023-04-03T05:34:17;690.40;;;641.63;;
53915;SDS011;39827;49.652;18.770;2023-04-03T05:36:43;709.10;;;658.80;;
53915;SDS011;39827;49.652;18.770;2023-04-03T05:39:08;777.72;;;722.28;;
53915;SDS011;39827;49.652;18.770;2023-04-03T05:41:34;710.97;;;658.67;;
53915;SDS011;39827;49.652;18.770;2023-04-03T05:43:59;726.78;;;675.35;;
53915;SDS011;39827;49.652;18.770;2023-04-03T05:46:25;700.03;;;650.85;;
53915;SDS011;39827;49.652;18.770;2023-04-03T05:48:50;643.75;;;597.30;;
53915;SDS011;39827;49.652;18.770;2023-04-03T05:51:21;713.90;;;663.85;;
53915;SDS011;39827;49.652;18.770;2023-04-03T05:53:51;648.70;;;602.40;;
53915;SDS011;39827;49.652;18.770;2023-04-03T05:56:21;685.53;;;636.63;;
53915;SDS011;39827;49.652;18.770;2023-04-03T05:58:47;679.45;;;631.22;;
53915;SDS011;39827;49.652;18.770;2023-04-03T06:01:12;647.47;;;600.88;;
53915;SDS011;39827;49.652;18.770;2023-04-03T06:03:38;648.88;;;602.05;;
53915;SDS011;39827;49.652;18.770;2023-04-03T06:06:05;697.45;;;648.17;;
53915;SDS011;39827;49.652;18.770;2023-04-03T06:08:33;643.75;;;597.10;;
53915;SDS011;39827;49.652;18.770;2023-04-03T06:10:58;656.85;;;609.70;;
53915;SDS011;39827;49.652;18.770;2023-04-03T06:13:24;662.13;;;614.75;;
53915;SDS011;39827;49.652;18.770;2023-04-03T06:15:49;708.03;;;658.80;;
53915;SDS011;39827;49.652;18.770;2023-04-03T06:18:15;692.78;;;643.90;;
53915;SDS011;39827;49.652;18.770;2023-04-03T06:20:40;666.70;;;618.97;;
53915;SDS011;39827;49.652;18.770;2023-04-03T06:23:06;656.50;;;609.65;;
53915;SDS011;39827;49.652;18.770;2023-04-03T06:25:31;686.35;;;637.97;;
53915;SDS011;39827;49.652;18.770;2023-04-03T06:27:56;663.80;;;617.03;;
53915;SDS011;39827;49.652;18.770;2023-04-03T06:30:22;632.53;;;586.72;;
53915;SDS011;39827;49.652;18.770;2023-04-03T06:32:47;651.58;;;605.15;;
53915;SDS011;39827;49.652;18.770;2023-04-03T06:35:13;672.47;;;623.20;;
53915;SDS011;39827;49.652;18.770;2023-04-03T06:37:38;667.67;;;619.63;;
53915;SDS011;39827;49.652;18.770;2023-04-03T06:40:04;696.97;;;647.67;;
53915;SDS011;39827;49.652;18.770;2023-04-03T06:42:30;653.30;;;605.47;;
53915;SDS011;39827;49.652;18.770;2023-04-03T06:44:56;651.90;;;604.20;;
53915;SDS011;39827;49.652;18.770;2023-04-03T06:47:21;724.25;;;672.67;;
53915;SDS011;39827;49.652;18.770;2023-04-03T06:49:46;613.30;;;568.88;;
53915;SDS011;39827;49.652;18.770;2023-04-03T06:52:12;712.38;;;662.17;;
53915;SDS011;39827;49.652;18.770;2023-04-03T06:54:38;722.72;;;672.35;;
53915;SDS011;39827;49.652;18.770;2023-04-03T06:57:05;684.55;;;635.67;;
53915;SDS011;39827;49.652;18.770;2023-04-03T06:59:30;773.45;;;719.58;;
53915;SDS011;39827;49.652;18.770;2023-04-03T07:01:55;787.75;;;733.67;;
53915;SDS011;39827;49.652;18.770;2023-04-03T07:04:21;813.30;;;756.55;;
53915;SDS011;39827;49.652;18.770;2023-04-03T07:06:46;774.28;;;720.55;;
53915;SDS011;39827;49.652;18.770;2023-04-03T07:09:12;751.97;;;700.42;;
53915;SDS011;39827;49.652;18.770;2023-04-03T07:11:39;703.22;;;654.10;;
53915;SDS011;39827;49.652;18.770;2023-04-03T07:14:05;775.60;;;721.75;;
53915;SDS011;39827;49.652;18.770;2023-04-03T07:16:32;811.95;;;755.90;;
53915;SDS011;39827;49.652;18.770;2023-04-03T07:19:01;786.72;;;732.17;;
53915;SDS011;39827;49.652;18.770;2023-04-03T07:21:27;786.05;;;729.33;;
53915;SDS011;39827;49.652;18.770;2023-04-03T07:23:53;845.78;;;786.30;;
53915;SDS011;39827;49.652;18.770;2023-04-03T07:26:19;851.47;;;792.33;;
53915;SDS011;39827;49.652;18.770;2023-04-03T07:28:45;856.88;;;796.95;;
53915;SDS011;39827;49.652;18.770;2023-04-03T07:31:13;921.20;;;854.78;;
53915;SDS011;39827;49.652;18.770;2023-04-03T07:33:42;869.22;;;807.97;;
53915;SDS011;39827;49.652;18.770;2023-04-03T07:36:09;886.42;;;822.65;;
53915;SDS011;39827;49.652;18.770;2023-04-03T07:38:36;898.83;;;834.70;;
53915;SDS011;39827;49.652;18.770;2023-04-03T07:41:03;873.20;;;811.25;;
53915;SDS011;39827;49.652;18.770;2023-04-03T07:43:29;862.78;;;801.88;;
53915;SDS011;39827;49.652;18.770;2023-04-03T07:45:54;886.25;;;822.55;;
53915;SDS011;39827;49.652;18.770;2023-04-03T07:48:21;838.00;;;778.83;;
53915;SDS011;39827;49.652;18.770;2023-04-03T07:50:48;807.60;;;750.72;;
53915;SDS011;39827;49.652;18.770;2023-04-03T07:53:14;847.83;;;786.63;;
53915;SDS011;39827;49.652;18.770;2023-04-03T07:55:40;860.25;;;798.28;;
53915;SDS011;39827;49.652;18.770;2023-04-03T07:58:12;868.00;;;806.38;;
53915;SDS011;39827;49.652;18.770;2023-04-03T08:00:40;905.30;;;840.83;;
53915;SDS011;39827;49.652;18.770;2023-04-03T08:03:06;874.80;;;812.25;;
53915;SDS011;39827;49.652;18.770;2023-04-03T08:05:38;814.40;;;757.75;;
53915;SDS011;39827;49.652;18.770;2023-04-03T08:08:05;870.20;;;807.40;;
53915;SDS011;39827;49.652;18.770;2023-04-03T08:10:31;876.58;;;807.03;;
53915;SDS011;39827;49.652;18.770;2023-04-03T08:12:56;898.85;;;827.35;;
53915;SDS011;39827;49.652;18.770;2023-04-03T08:15:22;905.20;;;834.50;;
53915;SDS011;39827;49.652;18.770;2023-04-03T08:17:47;915.65;;;844.33;;
53915;SDS011;39827;49.652;18.770;2023-04-03T08:20:13;942.75;;;868.28;;
53915;SDS011;39827;49.652;18.770;2023-04-03T08:22:39;913.30;;;842.70;;
53915;SDS011;39827;49.652;18.770;2023-04-03T08:25:04;916.13;;;842.83;;
53915;SDS011;39827;49.652;18.770;2023-04-03T08:27:30;883.38;;;817.20;;
53915;SDS011;39827;49.652;18.770;2023-04-03T08:29:56;889.15;;;823.92;;
53915;SDS011;39827;49.652;18.770;2023-04-03T08:32:22;926.15;;;858.83;;
53915;SDS011;39827;49.652;18.770;2023-04-03T08:34:48;905.83;;;840.40;;
53915;SDS011;39827;49.652;18.770;2023-04-03T08:37:13;909.35;;;843.22;;
53915;SDS011;39827;49.652;18.770;2023-04-03T08:39:38;985.97;;;904.58;;
53915;SDS011;39827;49.652;18.770;2023-04-03T08:42:13;927.88;;;857.88;;
53915;SDS011;39827;49.652;18.770;2023-04-03T08:44:50;917.63;;;848.60;;
53915;SDS011;39827;49.652;18.770;2023-04-03T08:48:00;897.25;;;831.40;;
53915;SDS011;39827;49.652;18.770;2023-04-03T08:50:41;980.15;;;899.75;;
53915;SDS011;39827;49.652;18.770;2023-04-03T08:53:14;937.38;;;863.25;;
53915;SDS011;39827;49.652;18.770;2023-04-03T08:55:43;922.47;;;851.03;;
53915;SDS011;39827;49.652;18.770;2023-04-03T08:58:21;906.28;;;836.58;;
53915;SDS011;39827;49.652;18.770;2023-04-03T09:08:50;921.13;;;854.22;;
53915;SDS011;39827;49.652;18.770;2023-04-03T09:19:15;918.17;;;850.80;;
53915;SDS011;39827;49.652;18.770;2023-04-03T09:22:28;907.95;;;841.45;;
53915;SDS011;39827;49.652;18.770;2023-04-03T09:25:16;870.17;;;804.65;;
53915;SDS011;39827;49.652;18.770;2023-04-03T09:27:45;959.78;;;884.80;;
53915;SDS011;39827;49.652;18.770;2023-04-03T09:30:18;980.97;;;904.10;;
53915;SDS011;39827;49.652;18.770;2023-04-03T09:32:47;960.00;;;885.47;;
53915;SDS011;39827;49.652;18.770;2023-04-03T09:37:49;948.05;;;874.45;;
53915;SDS011;39827;49.652;18.770;2023-04-03T09:42:58;937.47;;;868.17;;
53915;SDS011;39827;49.652;18.770;2023-04-03T09:45:27;940.58;;;870.17;;
53915;SDS011;39827;49.652;18.770;2023-04-03T09:53:32;993.83;;;912.90;;
53915;SDS011;39827;49.652;18.770;2023-04-03T09:55:58;933.13;;;862.45;;
53915;SDS011;39827;49.652;18.770;2023-04-03T09:58:38;1021.67;;;934.90;;
53915;SDS011;39827;49.652;18.770;2023-04-03T10:01:05;1002.10;;;920.05;;
53915;SDS011;39827;49.652;18.770;2023-04-03T10:03:33;1003.65;;;918.63;;
53915;SDS011;39827;49.652;18.770;2023-04-03T10:06:00;1042.50;;;947.83;;
53915;SDS011;39827;49.652;18.770;2023-04-03T10:08:31;1103.32;;;998.80;;
53915;SDS011;39827;49.652;18.770;2023-04-03T10:13:54;1127.25;;;999.90;;
53915;SDS011;39827;49.652;18.770;2023-04-03T10:16:41;1089.72;;;989.50;;
53915;SDS011;39827;49.652;18.770;2023-04-03T10:21:56;997.42;;;908.22;;
53915;SDS011;39827;49.652;18.770;2023-04-03T10:25:10;966.85;;;883.47;;
53915;SDS011;39827;49.652;18.770;2023-04-03T10:27:42;877.80;;;807.88;;
53915;SDS011;39827;49.652;18.770;2023-04-03T10:35:44;896.90;;;823.65;;
53915;SDS011;39827;49.652;18.770;2023-04-03T10:43:56;994.10;;;904.10;;
53915;SDS011;39827;49.652;18.770;2023-04-03T10:51:50;919.35;;;844.03;;
53915;SDS011;39827;49.652;18.770;2023-04-03T10:54:38;958.65;;;876.90;;
53915;SDS011;39827;49.652;18.770;2023-04-03T10:57:10;720.83;;;667.33;;
53915;SDS011;39827;49.652;18.770;2023-04-03T10:59:39;787.05;;;728.83;;
53915;SDS011;39827;49.652;18.770;2023-04-03T11:02:07;781.92;;;723.55;;
53915;SDS011;39827;49.652;18.770;2023-04-03T11:05:00;692.72;;;642.35;;
53915;SDS011;39827;49.652;18.770;2023-04-03T11:07:32;648.50;;;600.65;;
53915;SDS011;39827;49.652;18.770;2023-04-03T11:10:03;747.75;;;691.88;;
53915;SDS011;39827;49.652;18.770;2023-04-03T11:12:40;818.80;;;755.97;;
53915;SDS011;39827;49.652;18.770;2023-04-03T11:15:15;872.30;;;802.20;;
53915;SDS011;39827;49.652;18.770;2023-04-03T11:17:54;801.42;;;739.58;;
53915;SDS011;39827;49.652;18.770;2023-04-03T11:20:30;916.75;;;840.40;;
53915;SDS011;39827;49.652;18.770;2023-04-03T11:25:31;884.22;;;812.47;;
53915;SDS011;39827;49.652;18.770;2023-04-03T11:28:00;952.78;;;871.35;;
53915;SDS011;39827;49.652;18.770;2023-04-03T11:36:05;953.85;;;873.30;;
53915;SDS011;39827;49.652;18.770;2023-04-03T11:38:36;892.40;;;821.63;;
53915;SDS011;39827;49.652;18.770;2023-04-03T11:41:06;784.35;;;725.53;;
53915;SDS011;39827;49.652;18.770;2023-04-03T11:43:33;758.75;;;701.45;;
53915;SDS011;39827;49.652;18.770;2023-04-03T11:46:05;833.80;;;768.60;;
53915;SDS011;39827;49.652;18.770;2023-04-03T11:51:00;697.50;;;645.38;;
53915;SDS011;39827;49.652;18.770;2023-04-03T11:55:57;720.85;;;666.55;;
53915;SDS011;39827;49.652;18.770;2023-04-03T11:58:24;717.13;;;663.40;;
53915;SDS011;39827;49.652;18.770;2023-04-03T12:11:44;652.75;;;605.08;;
53915;SDS011;39827;49.652;18.770;2023-04-03T12:24:34;740.35;;;683.90;;
53915;SDS011;39827;49.652;18.770;2023-04-03T12:27:03;719.65;;;665.15;;
53915;SDS011;39827;49.652;18.770;2023-04-03T12:29:55;718.60;;;663.80;;
53915;SDS011;39827;49.652;18.770;2023-04-03T12:32:43;630.17;;;583.10;;
53915;SDS011;39827;49.652;18.770;2023-04-03T12:38:20;684.63;;;634.33;;
53915;SDS011;39827;49.652;18.770;2023-04-03T12:44:00;735.85;;;680.97;;
53915;SDS011;39827;49.652;18.770;2023-04-03T12:46:36;705.20;;;651.63;;
53915;SDS011;39827;49.652;18.770;2023-04-03T12:49:05;673.83;;;624.70;;
53915;SDS011;39827;49.652;18.770;2023-04-03T12:51:44;715.20;;;662.13;;
53915;SDS011;39827;49.652;18.770;2023-04-03T12:54:32;735.33;;;680.22;;
53915;SDS011;39827;49.652;18.770;2023-04-03T12:59:36;731.85;;;676.80;;
53915;SDS011;39827;49.652;18.770;2023-04-03T13:02:02;729.25;;;674.22;;
53915;SDS011;39827;49.652;18.770;2023-04-03T13:04:28;779.33;;;720.25;;
53915;SDS011;39827;49.652;18.770;2023-04-03T13:06:55;723.38;;;669.97;;
53915;SDS011;39827;49.652;18.770;2023-04-03T13:09:22;741.47;;;685.95;;
53915;SDS011;39827;49.652;18.770;2023-04-03T13:12:15;754.85;;;696.72;;
53915;SDS011;39827;49.652;18.770;2023-04-03T13:14:39;716.20;;;662.10;;
53915;SDS011;39827;49.652;18.770;2023-04-03T13:17:15;694.00;;;642.65;;
53915;SDS011;39827;49.652;18.770;2023-04-03T13:19:42;746.88;;;690.80;;
53915;SDS011;39827;49.652;18.770;2023-04-03T13:24:53;708.97;;;656.78;;
53915;SDS011;39827;49.652;18.770;2023-04-03T13:27:22;764.05;;;706.20;;
53915;SDS011;39827;49.652;18.770;2023-04-03T13:29:51;796.30;;;735.65;;
53915;SDS011;39827;49.652;18.770;2023-04-03T13:32:20;830.42;;;766.80;;
53915;SDS011;39827;49.652;18.770;2023-04-03T13:34:48;860.80;;;793.22;;
53915;SDS011;39827;49.652;18.770;2023-04-03T13:37:52;785.50;;;725.85;;
53915;SDS011;39827;49.652;18.770;2023-04-03T13:40:18;812.20;;;749.80;;
53915;SDS011;39827;49.652;18.770;2023-04-03T13:42:43;738.88;;;685.05;;
53915;SDS011;39827;49.652;18.770;2023-04-03T13:47:41;726.15;;;672.08;;
53915;SDS011;39827;49.652;18.770;2023-04-03T13:52:40;742.88;;;688.00;;
53915;SDS011;39827;49.652;18.770;2023-04-03T13:55:18;754.97;;;699.47;;
53915;SDS011;39827;49.652;18.770;2023-04-03T14:02:54;758.80;;;702.37;;
53915;SDS011;39827;49.652;18.770;2023-04-03T14:05:21;755.50;;;700.83;;
53915;SDS011;39827;49.652;18.770;2023-04-03T14:07:49;771.05;;;714.08;;
53915;SDS011;39827;49.652;18.770;2023-04-03T14:10:15;844.80;;;779.28;;
53915;SDS011;39827;49.652;18.770;2023-04-03T14:12:41;804.72;;;744.15;;
53915;SDS011;39827;49.652;18.770;2023-04-03T14:15:18;781.17;;;722.42;;
53915;SDS011;39827;49.652;18.770;2023-04-03T14:17:48;840.53;;;775.45;;
53915;SDS011;39827;49.652;18.770;2023-04-03T14:20:16;787.42;;;728.88;;
53915;SDS011;39827;49.652;18.770;2023-04-03T14:22:44;849.38;;;783.20;;
53915;SDS011;39827;49.652;18.770;2023-04-03T14:25:10;791.40;;;732.10;;
53915;SDS011;39827;49.652;18.770;2023-04-03T14:27:37;748.55;;;693.38;;
53915;SDS011;39827;49.652;18.770;2023-04-03T14:30:06;786.33;;;727.25;;
53915;SDS011;39827;49.652;18.770;2023-04-03T14:32:34;783.00;;;724.08;;
53915;SDS011;39827;49.652;18.770;2023-04-03T14:35:00;715.28;;;663.00;;
53915;SDS011;39827;49.652;18.770;2023-04-03T14:37:27;727.85;;;674.28;;
53915;SDS011;39827;49.652;18.770;2023-04-03T14:39:54;714.25;;;662.20;;
53915;SDS011;39827;49.652;18.770;2023-04-03T14:42:22;639.83;;;592.50;;
53915;SDS011;39827;49.652;18.770;2023-04-03T14:44:51;782.33;;;724.17;;
53915;SDS011;39827;49.652;18.770;2023-04-03T14:47:21;807.15;;;746.78;;
53915;SDS011;39827;49.652;18.770;2023-04-03T14:49:49;789.33;;;730.10;;
53915;SDS011;39827;49.652;18.770;2023-04-03T14:52:19;826.00;;;763.05;;
53915;SDS011;39827;49.652;18.770;2023-04-03T14:54:51;849.78;;;784.67;;
53915;SDS011;39827;49.652;18.770;2023-04-03T14:57:17;934.45;;;857.55;;
53915;SDS011;39827;49.652;18.770;2023-04-03T14:59:43;846.67;;;780.63;;
53915;SDS011;39827;49.652;18.770;2023-04-03T15:02:22;867.42;;;800.95;;
53915;SDS011;39827;49.652;18.770;2023-04-03T15:04:49;867.10;;;800.72;;
53915;SDS011;39827;49.652;18.770;2023-04-03T15:07:14;818.03;;;756.05;;
53915;SDS011;39827;49.652;18.770;2023-04-03T15:09:41;803.15;;;744.33;;
53915;SDS011;39827;49.652;18.770;2023-04-03T15:12:07;867.55;;;798.97;;
53915;SDS011;39827;49.652;18.770;2023-04-03T15:14:34;765.03;;;708.33;;
53915;SDS011;39827;49.652;18.770;2023-04-03T15:16:59;845.78;;;780.15;;
53915;SDS011;39827;49.652;18.770;2023-04-03T15:19:24;826.88;;;763.88;;
53915;SDS011;39827;49.652;18.770;2023-04-03T15:21:50;892.80;;;823.08;;
53915;SDS011;39827;49.652;18.770;2023-04-03T15:24:16;910.75;;;838.40;;
53915;SDS011;39827;49.652;18.770;2023-04-03T15:26:41;883.42;;;815.25;;
53915;SDS011;39827;49.652;18.770;2023-04-03T15:29:07;900.90;;;831.63;;
53915;SDS011;39827;49.652;18.770;2023-04-03T15:31:32;882.45;;;815.17;;
53915;SDS011;39827;49.652;18.770;2023-04-03T15:33:58;691.40;;;638.95;;
53915;SDS011;39827;49.652;18.770;2023-04-03T15:36:23;929.40;;;857.83;;
53915;SDS011;39827;49.652;18.770;2023-04-03T15:38:49;983.83;;;904.33;;
53915;SDS011;39827;49.652;18.770;2023-04-03T15:41:14;992.47;;;914.17;;
53915;SDS011;39827;49.652;18.770;2023-04-03T15:43:40;972.50;;;895.33;;
53915;SDS011;39827;49.652;18.770;2023-04-03T15:46:05;1022.95;;;939.53;;